sensor_id;sensor_type;location;lat;lon;timestamp;pressure;altitude;pressure_sealevel;temperature;humidity
79138;BME280;68544;45.566;10.238;2023-05-07T00:00:35;99746.09;;;20.73;57.26
79138;BME280;68544;45.566;10.238;2023-05-07T00:03:00;99754.94;;;20.80;57.10
79138;BME280;68544;45.566;10.238;2023-05-07T00:05:26;99763.38;;;20.73;57.48
79138;BME280;68544;45.566;10.238;2023-05-07T00:07:51;99760.47;;;20.85;57.11
79138;BME280;68544;45.566;10.238;2023-05-07T00:10:20;99760.75;;;20.83;57.12
79138;BME280;68544;45.566;10.238;2023-05-07T00:12:45;99762.13;;;20.59;57.87
79138;BME280;68544;45.566;10.238;2023-05-07T00:15:11;99760.88;;;20.72;57.20
79138;BME280;68544;45.566;10.238;2023-05-07T00:17:36;99758.09;;;20.67;57.47
79138;BME280;68544;45.566;10.238;2023-05-07T00:20:03;99767.94;;;20.63;58.02
79138;BME280;68544;45.566;10.238;2023-05-07T00:22:30;99769.38;;;20.70;57.48
79138;BME280;68544;45.566;10.238;2023-05-07T00:24:55;99768.59;;;20.75;57.43
79138;BME280;68544;45.566;10.238;2023-05-07T00:27:21;99772.69;;;20.72;57.30
79138;BME280;68544;45.566;10.238;2023-05-07T00:29:47;99766.59;;;20.65;57.97
79138;BME280;68544;45.566;10.238;2023-05-07T00:32:12;99768.25;;;20.66;57.82
79138;BME280;68544;45.566;10.238;2023-05-07T00:34:38;99759.25;;;20.71;57.75
79138;BME280;68544;45.566;10.238;2023-05-07T00:37:04;99766.84;;;20.64;57.72
79138;BME280;68544;45.566;10.238;2023-05-07T00:39:30;99771.72;;;20.57;57.93
79138;BME280;68544;45.566;10.238;2023-05-07T00:41:55;99763.59;;;20.67;57.75
79138;BME280;68544;45.566;10.238;2023-05-07T00:44:20;99762.25;;;20.69;57.57
79138;BME280;68544;45.566;10.238;2023-05-07T00:46:46;99769.78;;;20.57;57.74
79138;BME280;68544;45.566;10.238;2023-05-07T00:49:14;99762.34;;;20.53;58.22
79138;BME280;68544;45.566;10.238;2023-05-07T00:51:40;99769.47;;;20.54;58.25
79138;BME280;68544;45.566;10.238;2023-05-07T00:54:05;99779.50;;;20.43;58.67
79138;BME280;68544;45.566;10.238;2023-05-07T00:56:31;99780.66;;;20.47;58.65
79138;BME280;68544;45.566;10.238;2023-05-07T00:58:57;99776.00;;;20.48;58.46
79138;BME280;68544;45.566;10.238;2023-05-07T01:01:22;99774.41;;;20.52;58.22
79138;BME280;68544;45.566;10.238;2023-05-07T01:03:47;99775.13;;;20.42;58.46
79138;BME280;68544;45.566;10.238;2023-05-07T01:06:13;99782.94;;;20.55;58.24
79138;BME280;68544;45.566;10.238;2023-05-07T01:08:41;99765.03;;;20.48;57.82
79138;BME280;68544;45.566;10.238;2023-05-07T01:11:07;99784.69;;;20.39;58.57
79138;BME280;68544;45.566;10.238;2023-05-07T01:13:34;99790.38;;;20.33;59.06
79138;BME280;68544;45.566;10.238;2023-05-07T01:16:00;99788.38;;;20.28;59.16
79138;BME280;68544;45.566;10.238;2023-05-07T01:18:25;99798.41;;;20.39;59.10
79138;BME280;68544;45.566;10.238;2023-05-07T01:20:51;99793.69;;;20.35;59.05
79138;BME280;68544;45.566;10.238;2023-05-07T01:23:17;99789.03;;;20.35;59.33
79138;BME280;68544;45.566;10.238;2023-05-07T01:25:51;99791.19;;;20.33;59.35
79138;BME280;68544;45.566;10.238;2023-05-07T01:28:16;99791.91;;;20.07;60.32
79138;BME280;68544;45.566;10.238;2023-05-07T01:30:42;99793.50;;;20.03;60.73
79138;BME280;68544;45.566;10.238;2023-05-07T01:33:13;99792.16;;;20.22;59.75
79138;BME280;68544;45.566;10.238;2023-05-07T01:35:43;99794.41;;;19.87;61.05
79138;BME280;68544;45.566;10.238;2023-05-07T01:38:11;99795.19;;;20.04;60.72
79138;BME280;68544;45.566;10.238;2023-05-07T01:40:37;99795.72;;;20.23;60.08
79138;BME280;68544;45.566;10.238;2023-05-07T01:43:02;99798.06;;;20.14;60.46
79138;BME280;68544;45.566;10.238;2023-05-07T01:45:29;99800.69;;;20.26;60.05
79138;BME280;68544;45.566;10.238;2023-05-07T01:47:56;99794.69;;;20.29;59.84
79138;BME280;68544;45.566;10.238;2023-05-07T01:50:23;99786.78;;;20.32;59.74
79138;BME280;68544;45.566;10.238;2023-05-07T01:52:50;99791.69;;;20.52;58.87
79138;BME280;68544;45.566;10.238;2023-05-07T01:55:15;99796.16;;;20.58;58.85
79138;BME280;68544;45.566;10.238;2023-05-07T01:57:41;99801.38;;;20.60;58.96
79138;BME280;68544;45.566;10.238;2023-05-07T02:00:07;99793.13;;;20.60;58.89
79138;BME280;68544;45.566;10.238;2023-05-07T02:02:33;99790.00;;;20.73;57.97
79138;BME280;68544;45.566;10.238;2023-05-07T02:04:59;99800.13;;;20.72;58.05
79138;BME280;68544;45.566;10.238;2023-05-07T02:07:26;99807.81;;;20.70;58.12
79138;BME280;68544;45.566;10.238;2023-05-07T02:09:51;99802.00;;;20.67;57.77
79138;BME280;68544;45.566;10.238;2023-05-07T02:12:17;99797.47;;;20.77;57.61
79138;BME280;68544;45.566;10.238;2023-05-07T02:14:42;99790.50;;;20.70;57.56
79138;BME280;68544;45.566;10.238;2023-05-07T02:17:07;99793.47;;;20.63;57.75
79138;BME280;68544;45.566;10.238;2023-05-07T02:19:32;99798.44;;;20.44;59.35
79138;BME280;68544;45.566;10.238;2023-05-07T02:21:58;99779.94;;;20.13;60.36
79138;BME280;68544;45.566;10.238;2023-05-07T02:24:23;99783.16;;;20.27;60.31
79138;BME280;68544;45.566;10.238;2023-05-07T02:26:48;99787.72;;;20.21;60.29
79138;BME280;68544;45.566;10.238;2023-05-07T02:29:14;99784.00;;;20.11;60.17
79138;BME280;68544;45.566;10.238;2023-05-07T02:31:39;99783.66;;;20.24;60.06
79138;BME280;68544;45.566;10.238;2023-05-07T02:34:04;99784.03;;;20.32;59.58
79138;BME280;68544;45.566;10.238;2023-05-07T02:36:30;99793.41;;;20.36;59.25
79138;BME280;68544;45.566;10.238;2023-05-07T02:38:55;99783.66;;;20.45;58.29
79138;BME280;68544;45.566;10.238;2023-05-07T02:41:20;99787.81;;;20.48;58.15
79138;BME280;68544;45.566;10.238;2023-05-07T02:43:46;99783.75;;;20.56;57.40
79138;BME280;68544;45.566;10.238;2023-05-07T02:46:12;99780.66;;;20.47;58.46
79138;BME280;68544;45.566;10.238;2023-05-07T02:48:37;99786.31;;;20.40;58.39
79138;BME280;68544;45.566;10.238;2023-05-07T02:51:03;99786.56;;;20.61;57.58
79138;BME280;68544;45.566;10.238;2023-05-07T02:53:29;99785.94;;;20.54;57.93
79138;BME280;68544;45.566;10.238;2023-05-07T02:55:58;99795.78;;;20.50;58.67
79138;BME280;68544;45.566;10.238;2023-05-07T02:58:24;99774.84;;;20.43;58.56
79138;BME280;68544;45.566;10.238;2023-05-07T03:00:50;99788.63;;;20.48;58.46
79138;BME280;68544;45.566;10.238;2023-05-07T03:03:15;99779.41;;;20.33;58.12
79138;BME280;68544;45.566;10.238;2023-05-07T03:05:41;99774.78;;;20.38;56.82
79138;BME280;68544;45.566;10.238;2023-05-07T03:08:07;99760.75;;;20.13;56.74
79138;BME280;68544;45.566;10.238;2023-05-07T03:10:33;99769.03;;;20.18;56.10
79138;BME280;68544;45.566;10.238;2023-05-07T03:12:58;99764.72;;;20.22;55.91
79138;BME280;68544;45.566;10.238;2023-05-07T03:15:23;99755.97;;;20.25;55.61
79138;BME280;68544;45.566;10.238;2023-05-07T03:17:49;99760.16;;;20.11;56.83
79138;BME280;68544;45.566;10.238;2023-05-07T03:20:14;99744.09;;;19.98;57.57
79138;BME280;68544;45.566;10.238;2023-05-07T03:22:40;99749.13;;;19.85;57.67
79138;BME280;68544;45.566;10.238;2023-05-07T03:25:06;99743.38;;;19.86;57.53
79138;BME280;68544;45.566;10.238;2023-05-07T03:27:31;99748.94;;;19.91;57.28
79138;BME280;68544;45.566;10.238;2023-05-07T03:29:56;99748.47;;;19.78;57.69
79138;BME280;68544;45.566;10.238;2023-05-07T03:32:22;99754.88;;;19.83;57.14
79138;BME280;68544;45.566;10.238;2023-05-07T03:34:47;99748.50;;;19.99;56.64
79138;BME280;68544;45.566;10.238;2023-05-07T03:37:12;99760.53;;;19.98;57.01
79138;BME280;68544;45.566;10.238;2023-05-07T03:39:38;99754.56;;;20.01;56.64
79138;BME280;68544;45.566;10.238;2023-05-07T03:42:03;99751.63;;;20.08;55.94
79138;BME280;68544;45.566;10.238;2023-05-07T03:44:28;99761.38;;;19.99;56.10
79138;BME280;68544;45.566;10.238;2023-05-07T03:46:54;99755.22;;;20.08;55.73
79138;BME280;68544;45.566;10.238;2023-05-07T03:49:20;99750.34;;;20.15;55.23
79138;BME280;68544;45.566;10.238;2023-05-07T03:51:45;99749.84;;;20.18;55.52
79138;BME280;68544;45.566;10.238;2023-05-07T03:54:10;99745.97;;;20.14;55.15
79138;BME280;68544;45.566;10.238;2023-05-07T03:56:36;99745.69;;;20.16;54.86
79138;BME280;68544;45.566;10.238;2023-05-07T03:59:02;99746.59;;;20.21;54.91
79138;BME280;68544;45.566;10.238;2023-05-07T04:01:27;99748.53;;;20.21;54.80
79138;BME280;68544;45.566;10.238;2023-05-07T04:03:52;99748.38;;;20.11;55.12
79138;BME280;68544;45.566;10.238;2023-05-07T04:06:18;99756.53;;;20.06;55.10
79138;BME280;68544;45.566;10.238;2023-05-07T04:08:43;99762.97;;;20.16;54.17
79138;BME280;68544;45.566;10.238;2023-05-07T04:11:08;99762.88;;;20.06;54.51
79138;BME280;68544;45.566;10.238;2023-05-07T04:13:34;99745.28;;;19.86;54.87
79138;BME280;68544;45.566;10.238;2023-05-07T04:16:01;99761.31;;;20.15;54.74
79138;BME280;68544;45.566;10.238;2023-05-07T04:18:27;99763.31;;;20.20;55.15
79138;BME280;68544;45.566;10.238;2023-05-07T04:20:53;99759.59;;;20.09;55.04
79138;BME280;68544;45.566;10.238;2023-05-07T04:23:18;99758.44;;;20.05;55.46
79138;BME280;68544;45.566;10.238;2023-05-07T04:25:43;99736.69;;;19.77;56.15
79138;BME280;68544;45.566;10.238;2023-05-07T04:28:09;99767.16;;;20.02;56.14
79138;BME280;68544;45.566;10.238;2023-05-07T04:30:34;99767.44;;;20.01;55.98
79138;BME280;68544;45.566;10.238;2023-05-07T04:32:59;99768.84;;;20.03;56.24
79138;BME280;68544;45.566;10.238;2023-05-07T04:35:25;99762.91;;;20.11;55.74
79138;BME280;68544;45.566;10.238;2023-05-07T04:37:50;99767.81;;;20.09;56.42
79138;BME280;68544;45.566;10.238;2023-05-07T04:40:16;99772.97;;;20.22;56.05
79138;BME280;68544;45.566;10.238;2023-05-07T04:42:41;99780.47;;;20.32;55.73
79138;BME280;68544;45.566;10.238;2023-05-07T04:45:06;99777.91;;;20.25;56.20
79138;BME280;68544;45.566;10.238;2023-05-07T04:47:34;99777.72;;;20.32;55.87
79138;BME280;68544;45.566;10.238;2023-05-07T04:49:59;99788.03;;;20.46;55.54
79138;BME280;68544;45.566;10.238;2023-05-07T04:52:24;99794.56;;;20.40;56.22
79138;BME280;68544;45.566;10.238;2023-05-07T04:54:50;99788.38;;;20.28;57.02
79138;BME280;68544;45.566;10.238;2023-05-07T04:57:15;99791.00;;;20.40;55.81
79138;BME280;68544;45.566;10.238;2023-05-07T04:59:42;99785.25;;;20.41;55.76
79138;BME280;68544;45.566;10.238;2023-05-07T05:02:08;99793.28;;;20.48;54.69
79138;BME280;68544;45.566;10.238;2023-05-07T05:04:33;99792.84;;;20.56;55.12
79138;BME280;68544;45.566;10.238;2023-05-07T05:06:58;99793.19;;;20.65;54.48
79138;BME280;68544;45.566;10.238;2023-05-07T05:09:24;99799.44;;;20.82;53.67
79138;BME280;68544;45.566;10.238;2023-05-07T05:11:49;99793.19;;;20.65;54.03
79138;BME280;68544;45.566;10.238;2023-05-07T05:14:14;99800.97;;;20.73;53.93
79138;BME280;68544;45.566;10.238;2023-05-07T05:16:40;99789.06;;;20.40;54.80
79138;BME280;68544;45.566;10.238;2023-05-07T05:19:05;99815.16;;;20.65;54.06
79138;BME280;68544;45.566;10.238;2023-05-07T05:21:31;99814.13;;;20.71;54.58
79138;BME280;68544;45.566;10.238;2023-05-07T05:23:56;99821.25;;;20.72;54.51
79138;BME280;68544;45.566;10.238;2023-05-07T05:26:22;99806.34;;;20.63;54.48
79138;BME280;68544;45.566;10.238;2023-05-07T05:28:47;99808.72;;;20.81;53.85
79138;BME280;68544;45.566;10.238;2023-05-07T05:31:13;99809.84;;;20.80;53.68
79138;BME280;68544;45.566;10.238;2023-05-07T05:33:39;99812.78;;;20.73;54.22
79138;BME280;68544;45.566;10.238;2023-05-07T05:36:05;99805.38;;;21.00;53.42
79138;BME280;68544;45.566;10.238;2023-05-07T05:38:30;99805.78;;;21.09;53.06
79138;BME280;68544;45.566;10.238;2023-05-07T05:40:56;99808.75;;;21.34;52.21
79138;BME280;68544;45.566;10.238;2023-05-07T05:43:21;99813.69;;;21.37;52.19
79138;BME280;68544;45.566;10.238;2023-05-07T05:45:46;99792.25;;;21.34;52.07
79138;BME280;68544;45.566;10.238;2023-05-07T05:48:12;99803.66;;;21.53;52.76
79138;BME280;68544;45.566;10.238;2023-05-07T05:50:37;99805.06;;;21.55;52.62
79138;BME280;68544;45.566;10.238;2023-05-07T05:53:02;99804.66;;;21.42;52.77
79138;BME280;68544;45.566;10.238;2023-05-07T05:55:28;99807.69;;;21.40;53.16
79138;BME280;68544;45.566;10.238;2023-05-07T05:57:53;99802.69;;;21.32;52.85
79138;BME280;68544;45.566;10.238;2023-05-07T06:00:19;99795.91;;;21.13;52.73
79138;BME280;68544;45.566;10.238;2023-05-07T06:02:47;99783.31;;;21.17;52.60
79138;BME280;68544;45.566;10.238;2023-05-07T06:05:12;99780.28;;;21.13;52.67
79138;BME280;68544;45.566;10.238;2023-05-07T06:07:38;99791.13;;;21.30;52.35
79138;BME280;68544;45.566;10.238;2023-05-07T06:10:03;99787.34;;;21.41;51.93
79138;BME280;68544;45.566;10.238;2023-05-07T06:12:29;99793.50;;;21.53;51.74
79138;BME280;68544;45.566;10.238;2023-05-07T06:14:54;99785.84;;;21.60;51.79
79138;BME280;68544;45.566;10.238;2023-05-07T06:17:19;99792.28;;;21.39;51.81
79138;BME280;68544;45.566;10.238;2023-05-07T06:19:45;99791.09;;;21.62;51.56
79138;BME280;68544;45.566;10.238;2023-05-07T06:22:10;99791.38;;;21.65;51.34
79138;BME280;68544;45.566;10.238;2023-05-07T06:24:36;99786.06;;;21.54;52.01
79138;BME280;68544;45.566;10.238;2023-05-07T06:27:01;99780.19;;;21.77;51.07
79138;BME280;68544;45.566;10.238;2023-05-07T06:29:26;99784.41;;;21.89;50.87
79138;BME280;68544;45.566;10.238;2023-05-07T06:31:54;99785.84;;;21.97;50.85
79138;BME280;68544;45.566;10.238;2023-05-07T06:34:20;99778.63;;;21.86;51.07
79138;BME280;68544;45.566;10.238;2023-05-07T06:36:45;99779.03;;;22.10;50.78
79138;BME280;68544;45.566;10.238;2023-05-07T06:39:10;99775.81;;;22.23;49.94
79138;BME280;68544;45.566;10.238;2023-05-07T06:41:36;99768.03;;;22.10;49.88
79138;BME280;68544;45.566;10.238;2023-05-07T06:44:02;99766.91;;;22.06;50.35
79138;BME280;68544;45.566;10.238;2023-05-07T06:46:28;99762.53;;;22.10;49.83
79138;BME280;68544;45.566;10.238;2023-05-07T06:48:53;99769.16;;;22.14;50.24
79138;BME280;68544;45.566;10.238;2023-05-07T06:51:19;99763.47;;;22.40;49.27
79138;BME280;68544;45.566;10.238;2023-05-07T06:53:44;99778.59;;;22.33;49.44
79138;BME280;68544;45.566;10.238;2023-05-07T06:56:09;99778.09;;;22.46;48.55
79138;BME280;68544;45.566;10.238;2023-05-07T06:58:35;99779.66;;;22.27;49.11
79138;BME280;68544;45.566;10.238;2023-05-07T07:01:00;99780.59;;;22.52;48.53
79138;BME280;68544;45.566;10.238;2023-05-07T07:03:26;99785.53;;;22.50;48.43
79138;BME280;68544;45.566;10.238;2023-05-07T07:05:52;99773.78;;;22.75;47.50
79138;BME280;68544;45.566;10.238;2023-05-07T07:08:18;99771.63;;;22.97;47.38
79138;BME280;68544;45.566;10.238;2023-05-07T07:10:43;99768.03;;;23.12;46.88
79138;BME280;68544;45.566;10.238;2023-05-07T07:13:09;99767.78;;;22.98;46.83
79138;BME280;68544;45.566;10.238;2023-05-07T07:15:34;99772.97;;;22.95;46.53
79138;BME280;68544;45.566;10.238;2023-05-07T07:17:59;99768.88;;;22.97;46.34
79138;BME280;68544;45.566;10.238;2023-05-07T07:20:25;99786.75;;;22.90;46.65
79138;BME280;68544;45.566;10.238;2023-05-07T07:22:50;99775.78;;;23.20;46.00
79138;BME280;68544;45.566;10.238;2023-05-07T07:25:15;99773.31;;;23.64;44.59
79138;BME280;68544;45.566;10.238;2023-05-07T07:27:41;99771.56;;;24.03;43.34
79138;BME280;68544;45.566;10.238;2023-05-07T07:30:06;99765.75;;;24.73;41.17
79138;BME280;68544;45.566;10.238;2023-05-07T07:32:32;99762.66;;;25.81;39.23
79138;BME280;68544;45.566;10.238;2023-05-07T07:34:58;99772.66;;;27.46;34.93
79138;BME280;68544;45.566;10.238;2023-05-07T07:37:23;99765.19;;;29.85;30.23
79138;BME280;68544;45.566;10.238;2023-05-07T07:39:50;99766.09;;;29.72;29.81
79138;BME280;68544;45.566;10.238;2023-05-07T07:42:15;99763.94;;;31.38;26.60
79138;BME280;68544;45.566;10.238;2023-05-07T07:44:41;99765.09;;;30.94;27.55
79138;BME280;68544;45.566;10.238;2023-05-07T07:47:06;99762.59;;;28.64;31.25
79138;BME280;68544;45.566;10.238;2023-05-07T07:49:31;99768.06;;;30.02;28.85
79138;BME280;68544;45.566;10.238;2023-05-07T07:51:56;99769.16;;;30.88;27.35
79138;BME280;68544;45.566;10.238;2023-05-07T07:54:24;99760.25;;;30.12;28.38
79138;BME280;68544;45.566;10.238;2023-05-07T07:56:49;99772.78;;;29.71;28.85
79138;BME280;68544;45.566;10.238;2023-05-07T07:59:15;99767.63;;;28.48;31.18
79138;BME280;68544;45.566;10.238;2023-05-07T08:01:44;99771.03;;;29.75;28.96
79138;BME280;68544;45.566;10.238;2023-05-07T08:04:09;99764.72;;;29.60;29.57
79138;BME280;68544;45.566;10.238;2023-05-07T08:06:34;99768.84;;;29.41;29.45
79138;BME280;68544;45.566;10.238;2023-05-07T08:09:00;99770.66;;;29.67;29.17
79138;BME280;68544;45.566;10.238;2023-05-07T08:11:25;99773.59;;;29.93;28.84
79138;BME280;68544;45.566;10.238;2023-05-07T08:13:51;99772.13;;;29.96;29.24
79138;BME280;68544;45.566;10.238;2023-05-07T08:16:16;99779.03;;;29.45;29.36
79138;BME280;68544;45.566;10.238;2023-05-07T08:18:41;99782.97;;;29.44;29.22
79138;BME280;68544;45.566;10.238;2023-05-07T08:21:07;99774.50;;;30.11;28.34
79138;BME280;68544;45.566;10.238;2023-05-07T08:23:32;99786.53;;;30.76;27.48
79138;BME280;68544;45.566;10.238;2023-05-07T08:25:59;99796.63;;;31.54;26.64
79138;BME280;68544;45.566;10.238;2023-05-07T08:28:24;99776.03;;;33.51;23.51
79138;BME280;68544;45.566;10.238;2023-05-07T08:30:50;99784.13;;;36.32;19.83
79138;BME280;68544;45.566;10.238;2023-05-07T08:33:15;99780.47;;;37.71;18.26
79138;BME280;68544;45.566;10.238;2023-05-07T08:35:40;99778.97;;;38.94;16.48
79138;BME280;68544;45.566;10.238;2023-05-07T08:38:06;99780.88;;;39.75;15.23
79138;BME280;68544;45.566;10.238;2023-05-07T08:40:38;99788.78;;;40.83;13.81
79138;BME280;68544;45.566;10.238;2023-05-07T08:43:07;99787.91;;;40.79;14.73
79138;BME280;68544;45.566;10.238;2023-05-07T08:45:34;99783.28;;;42.61;13.48
79138;BME280;68544;45.566;10.238;2023-05-07T08:48:02;99789.34;;;42.21;13.71
79138;BME280;68544;45.566;10.238;2023-05-07T08:50:30;99789.63;;;43.36;11.91
79138;BME280;68544;45.566;10.238;2023-05-07T08:52:56;99788.13;;;42.15;13.10
79138;BME280;68544;45.566;10.238;2023-05-07T08:55:22;99771.47;;;42.84;12.56
79138;BME280;68544;45.566;10.238;2023-05-07T08:57:49;99782.22;;;43.66;12.33
79138;BME280;68544;45.566;10.238;2023-05-07T09:00:15;99778.16;;;43.57;12.68
79138;BME280;68544;45.566;10.238;2023-05-07T09:02:41;99786.09;;;42.68;13.14
79138;BME280;68544;45.566;10.238;2023-05-07T09:05:06;99788.97;;;42.29;13.70
79138;BME280;68544;45.566;10.238;2023-05-07T09:07:32;99788.13;;;42.22;13.40
79138;BME280;68544;45.566;10.238;2023-05-07T09:09:57;99781.25;;;42.44;12.82
79138;BME280;68544;45.566;10.238;2023-05-07T09:12:23;99778.31;;;43.11;12.45
79138;BME280;68544;45.566;10.238;2023-05-07T09:14:49;99786.09;;;42.68;13.11
79138;BME280;68544;45.566;10.238;2023-05-07T09:17:17;99784.88;;;42.37;13.58
79138;BME280;68544;45.566;10.238;2023-05-07T09:19:44;99781.56;;;41.00;14.66
79138;BME280;68544;45.566;10.238;2023-05-07T09:22:10;99777.97;;;41.07;15.11
79138;BME280;68544;45.566;10.238;2023-05-07T09:24:36;99778.41;;;42.44;13.78
79138;BME280;68544;45.566;10.238;2023-05-07T09:27:03;99780.56;;;41.36;14.59
79138;BME280;68544;45.566;10.238;2023-05-07T09:29:32;99773.44;;;41.78;14.06
79138;BME280;68544;45.566;10.238;2023-05-07T09:32:07;99781.22;;;42.97;12.79
79138;BME280;68544;45.566;10.238;2023-05-07T09:34:33;99772.69;;;42.83;13.01
79138;BME280;68544;45.566;10.238;2023-05-07T09:37:01;99764.50;;;43.16;13.14
79138;BME280;68544;45.566;10.238;2023-05-07T09:39:39;99772.88;;;43.66;11.94
79138;BME280;68544;45.566;10.238;2023-05-07T09:42:04;99765.06;;;43.73;12.21
79138;BME280;68544;45.566;10.238;2023-05-07T09:44:31;99764.13;;;43.04;12.56
79138;BME280;68544;45.566;10.238;2023-05-07T09:46:59;99764.88;;;43.33;12.07
79138;BME280;68544;45.566;10.238;2023-05-07T09:49:29;99772.72;;;42.37;12.67
79138;BME280;68544;45.566;10.238;2023-05-07T09:52:00;99761.78;;;43.82;11.99
79138;BME280;68544;45.566;10.238;2023-05-07T09:54:26;99761.78;;;45.56;10.83
79138;BME280;68544;45.566;10.238;2023-05-07T09:56:54;99769.28;;;46.96;9.83
79138;BME280;68544;45.566;10.238;2023-05-07T09:59:21;99767.88;;;44.42;10.88
79138;BME280;68544;45.566;10.238;2023-05-07T10:01:46;99774.16;;;44.64;11.09
79138;BME280;68544;45.566;10.238;2023-05-07T10:04:12;99767.50;;;45.18;10.76
79138;BME280;68544;45.566;10.238;2023-05-07T10:06:38;99757.59;;;45.30;10.46
79138;BME280;68544;45.566;10.238;2023-05-07T10:09:05;99757.50;;;45.67;9.90
79138;BME280;68544;45.566;10.238;2023-05-07T10:11:32;99752.28;;;45.92;10.08
79138;BME280;68544;45.566;10.238;2023-05-07T10:13:58;99756.44;;;45.58;10.53
79138;BME280;68544;45.566;10.238;2023-05-07T10:16:25;99757.03;;;45.42;10.48
79138;BME280;68544;45.566;10.238;2023-05-07T10:18:50;99758.47;;;44.45;11.55
79138;BME280;68544;45.566;10.238;2023-05-07T10:21:18;99752.44;;;44.81;10.94
79138;BME280;68544;45.566;10.238;2023-05-07T10:23:53;99745.41;;;43.97;12.16
79138;BME280;68544;45.566;10.238;2023-05-07T10:26:23;99742.63;;;45.22;10.85
79138;BME280;68544;45.566;10.238;2023-05-07T10:28:54;99730.44;;;45.49;10.64
79138;BME280;68544;45.566;10.238;2023-05-07T10:33:59;99729.69;;;43.78;12.08
79138;BME280;68544;45.566;10.238;2023-05-07T10:36:26;99744.25;;;44.38;11.94
79138;BME280;68544;45.566;10.238;2023-05-07T10:38:53;99724.19;;;44.93;11.02
79138;BME280;68544;45.566;10.238;2023-05-07T10:41:19;99740.50;;;44.52;11.53
79138;BME280;68544;45.566;10.238;2023-05-07T10:43:46;99735.47;;;43.57;12.02
79138;BME280;68544;45.566;10.238;2023-05-07T10:46:19;99740.00;;;43.51;12.22
79138;BME280;68544;45.566;10.238;2023-05-07T10:51:29;99728.31;;;44.04;11.06
79138;BME280;68544;45.566;10.238;2023-05-07T10:56:38;99721.25;;;37.71;17.92
79138;BME280;68544;45.566;10.238;2023-05-07T10:59:30;99716.38;;;36.57;20.21
79138;BME280;68544;45.566;10.238;2023-05-07T11:02:00;99732.44;;;35.62;20.92
79138;BME280;68544;45.566;10.238;2023-05-07T11:04:31;99722.84;;;34.96;21.12
79138;BME280;68544;45.566;10.238;2023-05-07T11:07:29;99723.09;;;35.03;21.28
79138;BME280;68544;45.566;10.238;2023-05-07T11:09:56;99724.94;;;34.23;21.68
79138;BME280;68544;45.566;10.238;2023-05-07T11:15:03;99724.28;;;33.81;24.26
79138;BME280;68544;45.566;10.238;2023-05-07T11:17:29;99725.00;;;33.45;23.86
79138;BME280;68544;45.566;10.238;2023-05-07T11:19:57;99722.41;;;33.73;23.96
79138;BME280;68544;45.566;10.238;2023-05-07T11:24:59;99710.88;;;33.42;24.45
79138;BME280;68544;45.566;10.238;2023-05-07T11:27:25;99718.97;;;33.02;24.63
79138;BME280;68544;45.566;10.238;2023-05-07T11:29:51;99729.06;;;32.95;25.37
79138;BME280;68544;45.566;10.238;2023-05-07T11:32:29;99707.97;;;31.89;26.62
79138;BME280;68544;45.566;10.238;2023-05-07T11:34:56;99708.56;;;32.41;25.52
79138;BME280;68544;45.566;10.238;2023-05-07T11:37:23;99711.28;;;32.20;26.12
79138;BME280;68544;45.566;10.238;2023-05-07T11:39:49;99706.78;;;32.07;25.83
79138;BME280;68544;45.566;10.238;2023-05-07T11:44:51;99717.84;;;31.06;27.30
79138;BME280;68544;45.566;10.238;2023-05-07T11:47:18;99714.84;;;31.28;27.25
79138;BME280;68544;45.566;10.238;2023-05-07T11:49:45;99709.59;;;31.52;26.33
79138;BME280;68544;45.566;10.238;2023-05-07T11:52:12;99710.88;;;31.63;25.52
79138;BME280;68544;45.566;10.238;2023-05-07T11:54:38;99714.19;;;31.31;27.22
79138;BME280;68544;45.566;10.238;2023-05-07T11:57:03;99710.41;;;31.36;27.03
79138;BME280;68544;45.566;10.238;2023-05-07T11:59:28;99727.34;;;31.22;27.27
79138;BME280;68544;45.566;10.238;2023-05-07T12:01:57;99716.03;;;31.18;27.24
79138;BME280;68544;45.566;10.238;2023-05-07T12:04:24;99713.69;;;31.55;26.07
79138;BME280;68544;45.566;10.238;2023-05-07T12:06:53;99713.34;;;31.39;27.48
79138;BME280;68544;45.566;10.238;2023-05-07T12:09:19;99715.22;;;30.92;28.30
79138;BME280;68544;45.566;10.238;2023-05-07T12:11:46;99715.91;;;30.33;28.40
79138;BME280;68544;45.566;10.238;2023-05-07T12:14:11;99718.50;;;30.21;28.62
79138;BME280;68544;45.566;10.238;2023-05-07T12:16:36;99709.38;;;30.37;29.10
79138;BME280;68544;45.566;10.238;2023-05-07T12:19:04;99712.69;;;30.48;29.13
79138;BME280;68544;45.566;10.238;2023-05-07T12:21:31;99714.41;;;30.27;29.26
79138;BME280;68544;45.566;10.238;2023-05-07T12:23:56;99718.19;;;30.22;29.29
79138;BME280;68544;45.566;10.238;2023-05-07T12:26:22;99717.84;;;30.24;29.41
79138;BME280;68544;45.566;10.238;2023-05-07T12:28:49;99708.25;;;29.91;29.89
79138;BME280;68544;45.566;10.238;2023-05-07T12:31:15;99715.97;;;30.50;29.07
79138;BME280;68544;45.566;10.238;2023-05-07T12:33:41;99707.09;;;30.48;29.27
79138;BME280;68544;45.566;10.238;2023-05-07T12:36:07;99707.88;;;29.84;29.68
79138;BME280;68544;45.566;10.238;2023-05-07T12:38:38;99713.66;;;29.96;29.77
79138;BME280;68544;45.566;10.238;2023-05-07T12:41:04;99710.13;;;29.73;29.52
79138;BME280;68544;45.566;10.238;2023-05-07T12:43:30;99710.66;;;29.84;29.89
79138;BME280;68544;45.566;10.238;2023-05-07T12:45:58;99709.94;;;29.70;29.98
79138;BME280;68544;45.566;10.238;2023-05-07T12:48:25;99704.00;;;29.62;29.88
79138;BME280;68544;45.566;10.238;2023-05-07T12:50:56;99697.59;;;29.62;29.42
79138;BME280;68544;45.566;10.238;2023-05-07T12:53:23;99690.53;;;29.56;29.56
79138;BME280;68544;45.566;10.238;2023-05-07T12:55:52;99699.72;;;29.34;29.14
79138;BME280;68544;45.566;10.238;2023-05-07T12:58:25;99690.97;;;29.49;28.71
79138;BME280;68544;45.566;10.238;2023-05-07T13:00:51;99690.16;;;29.49;28.34